Time;durP1;ratioP1;P1;durP2;ratioP2;P2;SDS_P1;SDS_P2;PMS_P1;PMS_P2;Temp;Humidity;BMP_temperature;BMP_pressure;BME280_temperature;BME280_humidity;BME280_pressure;Samples;Min_cycle;Max_cycle;Signal;HPM_P1;HPM_P2
2024/01/02 00:01:03;;;;;;;24.13;6.93;;;;;;;;;;5033312;28;20555;-78
2024/01/02 00:03:31;;;;;;;13.63;5.37;;;;;;;;;;5033297;28;21006;-79
2024/01/02 00:05:57;;;;;;;12.13;6.00;;;;;;;;;;5032825;28;20555;-78
2024/01/02 00:08:24;;;;;;;20.37;6.47;;;;;;;;;;5033299;28;20575;-78
2024/01/02 00:10:50;;;;;;;13.80;6.37;;;;;;;;;;5033548;28;21046;-78
2024/01/02 00:13:17;;;;;;;15.50;6.00;;;;;;;;;;5033433;28;20528;-78
2024/01/02 00:15:43;;;;;;;13.60;5.60;;;;;;;;;;5032864;28;20547;-79
2024/01/02 00:18:10;;;;;;;19.37;8.03;;;;;;;;;;5033254;28;21010;-78
2024/01/02 00:20:37;;;;;;;17.57;6.03;;;;;;;;;;5033458;28;20544;-80
2024/01/02 00:23:04;;;;;;;19.93;6.93;;;;;;;;;;5033599;28;20453;-80
2024/01/02 00:25:31;;;;;;;13.63;5.60;;;;;;;;;;5033135;28;20477;-80
2024/01/02 00:27:58;;;;;;;25.77;6.90;;;;;;;;;;5033464;28;20534;-78
2024/01/02 00:30:25;;;;;;;9.03;5.30;;;;;;;;;;5032887;28;21025;-81
2024/01/02 00:32:51;;;;;;;20.27;6.70;;;;;;;;;;5033328;28;20484;-78
2024/01/02 00:35:17;;;;;;;12.63;5.37;;;;;;;;;;5032800;28;20563;-78
2024/01/02 00:37:45;;;;;;;24.13;6.60;;;;;;;;;;5033926;28;20778;-81
2024/01/02 00:40:12;;;;;;;11.73;4.70;;;;;;;;;;5032869;28;20554;-78
2024/01/02 00:42:38;;;;;;;14.60;5.23;;;;;;;;;;5033397;28;20590;-80
2024/01/02 00:45:05;;;;;;;15.23;5.30;;;;;;;;;;5032374;28;20620;-79
2024/01/02 00:47:31;;;;;;;9.27;5.17;;;;;;;;;;5033107;28;20487;-78
2024/01/02 00:49:58;;;;;;;14.30;5.20;;;;;;;;;;5033124;28;21058;-79
2024/01/02 00:52:24;;;;;;;12.00;4.73;;;;;;;;;;5036926;28;20989;-80
2024/01/02 00:54:52;;;;;;;12.17;4.80;;;;;;;;;;5036730;28;20548;-80
2024/01/02 00:57:18;;;;;;;17.43;5.63;;;;;;;;;;5037031;28;20528;-80
2024/01/02 00:59:45;;;;;;;20.30;4.70;;;;;;;;;;5036570;28;20552;-80
2024/01/02 01:02:11;;;;;;;14.23;5.67;;;;;;;;;;5037095;28;20448;-79
2024/01/02 01:04:41;;;;;;;14.30;5.00;;;;;;;;;;5036359;28;20582;-79
2024/01/02 01:07:07;;;;;;;13.03;5.43;;;;;;;;;;5037045;28;20532;-80
2024/01/02 01:09:34;;;;;;;20.03;6.50;;;;;;;;;;5036428;28;20898;-78
2024/01/02 01:12:02;;;;;;;11.23;7.70;;;;;;;;;;5037077;28;20534;-78
2024/01/02 01:14:29;;;;;;;26.20;4.70;;;;;;;;;;5036157;28;20556;-79
2024/01/02 01:16:55;;;;;;;20.73;5.23;;;;;;;;;;5036491;28;21009;-79
2024/01/02 01:19:22;;;;;;;12.83;4.80;;;;;;;;;;5036275;28;21058;-79
2024/01/02 01:21:48;;;;;;;12.67;4.97;;;;;;;;;;5036378;28;21018;-79
2024/01/02 01:24:15;;;;;;;8.27;4.60;;;;;;;;;;5036128;28;20563;-78
2024/01/02 01:26:41;;;;;;;21.60;5.77;;;;;;;;;;5036620;28;20443;-79
2024/01/02 01:29:10;;;;;;;12.60;4.77;;;;;;;;;;5035905;28;20544;-79
2024/01/02 01:31:36;;;;;;;14.23;5.13;;;;;;;;;;5036453;28;20437;-80
2024/01/02 01:34:02;;;;;;;14.60;5.10;;;;;;;;;;5035871;28;20532;-79
2024/01/02 01:36:29;;;;;;;21.20;5.83;;;;;;;;;;5036510;28;20528;-79
2024/01/02 01:38:55;;;;;;;16.47;5.17;;;;;;;;;;5035638;28;20540;-78
2024/01/02 01:41:22;;;;;;;22.83;5.47;;;;;;;;;;5036423;28;20528;-79
2024/01/02 01:43:48;;;;;;;19.63;6.13;;;;;;;;;;5035807;28;20472;-78
2024/01/02 01:46:16;;;;;;;11.20;4.60;;;;;;;;;;5036058;28;21002;-81
2024/01/02 01:48:42;;;;;;;23.13;5.23;;;;;;;;;;5036138;28;20480;-81
2024/01/02 01:51:09;;;;;;;24.77;5.27;;;;;;;;;;5035908;28;20452;-81
2024/01/02 01:53:36;;;;;;;17.73;5.00;;;;;;;;;;5036202;28;20452;-80
2024/01/02 01:56:03;;;;;;;14.73;4.40;;;;;;;;;;5035605;28;20901;-80
2024/01/02 01:58:31;;;;;;;19.33;6.13;;;;;;;;;;5035547;28;21014;-80
2024/01/02 02:00:57;;;;;;;30.37;6.90;;;;;;;;;;5035170;28;20551;-81
2024/01/02 02:03:26;;;;;;;10.03;5.17;;;;;;;;;;5035676;28;20531;-79
2024/01/02 02:05:53;;;;;;;19.30;5.27;;;;;;;;;;5034965;28;21063;-78
2024/01/02 02:08:19;;;;;;;14.87;5.20;;;;;;;;;;5035361;28;21085;-81
2024/01/02 02:10:45;;;;;;;10.40;6.20;;;;;;;;;;5035254;28;20555;-78
2024/01/02 02:13:12;;;;;;;20.73;4.70;;;;;;;;;;5035775;28;20531;-79
2024/01/02 02:15:41;;;;;;;13.30;6.30;;;;;;;;;;5034987;28;20565;-81
2024/01/02 02:18:08;;;;;;;27.60;5.77;;;;;;;;;;5035606;28;20447;-79
2024/01/02 02:20:36;;;;;;;16.13;5.10;;;;;;;;;;5035552;28;20575;-80
2024/01/02 02:23:04;;;;;;;10.77;3.93;;;;;;;;;;5035254;28;20479;-81
2024/01/02 02:25:30;;;;;;;13.83;5.07;;;;;;;;;;5034926;28;20536;-81
2024/01/02 02:27:56;;;;;;;13.83;4.33;;;;;;;;;;5035396;28;20571;-80
2024/01/02 02:30:23;;;;;;;21.53;4.50;;;;;;;;;;5034693;28;20547;-78
2024/01/02 02:32:49;;;;;;;16.00;6.10;;;;;;;;;;5035444;28;20524;-81
2024/01/02 02:35:16;;;;;;;12.47;5.83;;;;;;;;;;5034676;28;20543;-81
2024/01/02 02:37:42;;;;;;;16.27;4.20;;;;;;;;;;5035228;28;20532;-81
2024/01/02 02:40:11;;;;;;;19.07;4.93;;;;;;;;;;5034647;28;20547;-80
2024/01/02 02:42:37;;;;;;;20.17;5.77;;;;;;;;;;5035146;28;20528;-80
2024/01/02 02:45:04;;;;;;;19.73;3.97;;;;;;;;;;5034886;28;20505;-80
2024/01/02 02:47:31;;;;;;;14.17;4.13;;;;;;;;;;5034847;28;20536;-79
2024/01/02 02:49:58;;;;;;;14.93;4.97;;;;;;;;;;5034574;28;20559;-79
2024/01/02 02:52:24;;;;;;;18.40;4.93;;;;;;;;;;5035095;28;20531;-79
2024/01/02 02:54:51;;;;;;;11.97;4.37;;;;;;;;;;5034235;28;21078;-79
2024/01/02 02:57:19;;;;;;;16.80;4.40;;;;;;;;;;5034895;28;20527;-79
2024/01/02 02:59:45;;;;;;;14.07;4.40;;;;;;;;;;5034277;28;20555;-79
2024/01/02 03:02:11;;;;;;;15.37;5.27;;;;;;;;;;5034734;28;20523;-79
2024/01/02 03:04:38;;;;;;;7.27;3.87;;;;;;;;;;5034140;28;20568;-79
2024/01/02 03:07:04;;;;;;;14.70;5.50;;;;;;;;;;5034407;28;20998;-79
2024/01/02 03:09:32;;;;;;;13.47;4.30;;;;;;;;;;5034122;28;20923;-79
2024/01/02 03:11:58;;;;;;;14.50;4.17;;;;;;;;;;5034222;28;20455;-78
2024/01/02 03:14:27;;;;;;;10.30;4.00;;;;;;;;;;5033494;28;20564;-78
2024/01/02 03:16:53;;;;;;;9.00;3.80;;;;;;;;;;5034691;28;20445;-79
2024/01/02 03:19:20;;;;;;;9.67;3.70;;;;;;;;;;5033924;28;21065;-78
2024/01/02 03:21:47;;;;;;;11.50;3.60;;;;;;;;;;5034467;28;20523;-79
2024/01/02 03:24:13;;;;;;;19.33;4.90;;;;;;;;;;5033990;28;20873;-78
2024/01/02 03:26:40;;;;;;;18.07;4.80;;;;;;;;;;5034084;28;21014;-79
2024/01/02 03:29:06;;;;;;;19.73;5.73;;;;;;;;;;5033586;28;20484;-78
2024/01/02 03:31:34;;;;;;;12.77;4.90;;;;;;;;;;5034392;28;20532;-78
2024/01/02 03:34:00;;;;;;;6.00;3.50;;;;;;;;;;5033476;28;20527;-78
2024/01/02 03:36:27;;;;;;;9.70;4.20;;;;;;;;;;5034357;28;20523;-78
2024/01/02 03:38:53;;;;;;;16.93;4.83;;;;;;;;;;5033479;28;20528;-79
2024/01/02 03:41:19;;;;;;;9.00;3.77;;;;;;;;;;5034099;28;20525;-78
2024/01/02 03:43:46;;;;;;;15.43;3.93;;;;;;;;;;5033796;28;20519;-78
2024/01/02 03:46:14;;;;;;;15.50;5.13;;;;;;;;;;5033686;28;21010;-78
2024/01/02 03:48:42;;;;;;;13.43;4.20;;;;;;;;;;5034138;28;20483;-79
2024/01/02 03:51:08;;;;;;;10.70;3.63;;;;;;;;;;5033706;28;20551;-78
2024/01/02 03:53:34;;;;;;;12.93;4.40;;;;;;;;;;5033703;28;20543;-78
2024/01/02 03:56:01;;;;;;;17.20;4.23;;;;;;;;;;5033040;28;20554;-79
2024/01/02 03:58:30;;;;;;;15.97;5.13;;;;;;;;;;5033374;28;20871;-79
2024/01/02 04:00:56;;;;;;;13.47;4.80;;;;;;;;;;5033268;28;20473;-79
2024/01/02 04:03:23;;;;;;;18.87;4.60;;;;;;;;;;5032314;28;20441;-78
2024/01/02 04:05:51;;;;;;;12.13;3.20;;;;;;;;;;5032789;28;20919;-78
2024/01/02 04:08:17;;;;;;;10.87;4.00;;;;;;;;;;5033584;28;20807;-80
2024/01/02 04:10:44;;;;;;;14.90;3.93;;;;;;;;;;5033531;28;20556;-79
2024/01/02 04:13:10;;;;;;;25.37;4.50;;;;;;;;;;5033272;28;21012;-80
2024/01/02 04:15:37;;;;;;;6.53;3.97;;;;;;;;;;5033012;28;20469;-78
2024/01/02 04:18:04;;;;;;;16.07;3.40;;;;;;;;;;5033538;28;20533;-78
2024/01/02 04:20:30;;;;;;;10.20;3.07;;;;;;;;;;5033102;28;20465;-78
2024/01/02 04:22:58;;;;;;;13.40;4.30;;;;;;;;;;5033247;28;20437;-78
2024/01/02 04:25:24;;;;;;;16.10;5.20;;;;;;;;;;5031911;28;20555;-79
2024/01/02 04:27:54;;;;;;;15.47;4.30;;;;;;;;;;5033393;28;20506;-78
2024/01/02 04:30:21;;;;;;;15.03;4.50;;;;;;;;;;5032788;28;20564;-78
2024/01/02 04:32:47;;;;;;;15.70;4.50;;;;;;;;;;5032978;28;20527;-79
2024/01/02 04:35:14;;;;;;;8.97;4.03;;;;;;;;;;5032712;28;20629;-78
2024/01/02 04:37:40;;;;;;;11.80;5.50;;;;;;;;;;5033387;28;20532;-79
2024/01/02 04:40:10;;;;;;;9.40;5.00;;;;;;;;;;5032543;28;20892;-78
2024/01/02 04:42:37;;;;;;;10.07;5.00;;;;;;;;;;5033361;28;20468;-78
2024/01/02 04:45:03;;;;;;;12.13;5.20;;;;;;;;;;5032448;28;20504;-78
2024/01/02 04:47:30;;;;;;;22.43;6.07;;;;;;;;;;5033363;28;20884;-78
2024/01/02 04:49:56;;;;;;;11.73;5.70;;;;;;;;;;5032658;28;20563;-80
2024/01/02 04:52:23;;;;;;;15.57;5.83;;;;;;;;;;5033324;28;20523;-80
2024/01/02 04:54:49;;;;;;;16.53;6.17;;;;;;;;;;5032502;28;20560;-80
2024/01/02 04:57:17;;;;;;;22.60;8.30;;;;;;;;;;5032856;28;20536;-80
2024/01/02 04:59:43;;;;;;;12.77;6.47;;;;;;;;;;5032730;28;20895;-80
2024/01/02 05:02:10;;;;;;;18.17;6.47;;;;;;;;;;5033237;28;20799;-80
2024/01/02 05:04:36;;;;;;;10.57;5.97;;;;;;;;;;5032487;28;20477;-80
2024/01/02 05:07:03;;;;;;;10.20;4.57;;;;;;;;;;5033189;28;20519;-80
2024/01/02 05:09:29;;;;;;;11.00;4.67;;;;;;;;;;5032567;28;20583;-80
2024/01/02 05:11:55;;;;;;;7.63;3.73;;;;;;;;;;5032750;28;20524;-79
2024/01/02 05:14:23;;;;;;;9.33;4.00;;;;;;;;;;5032986;28;20560;-79
2024/01/02 05:16:50;;;;;;;13.00;4.40;;;;;;;;;;5033065;28;20527;-79
2024/01/02 05:19:18;;;;;;;13.97;4.03;;;;;;;;;;5032523;28;20465;-80
2024/01/02 05:21:44;;;;;;;12.33;3.63;;;;;;;;;;5033030;28;20436;-79
2024/01/02 05:24:10;;;;;;;12.53;4.00;;;;;;;;;;5032367;28;20564;-79
2024/01/02 05:26:37;;;;;;;14.30;4.93;;;;;;;;;;5032693;28;20524;-79
2024/01/02 05:29:03;;;;;;;16.93;5.50;;;;;;;;;;5032387;28;20552;-79
2024/01/02 05:31:31;;;;;;;21.33;5.10;;;;;;;;;;5032957;28;20523;-80
2024/01/02 05:33:57;;;;;;;10.97;5.60;;;;;;;;;;5032448;28;20527;-80
2024/01/02 05:36:24;;;;;;;13.50;5.47;;;;;;;;;;5034002;28;20523;-79
2024/01/02 05:38:51;;;;;;;15.87;6.20;;;;;;;;;;5035659;28;20874;-80
2024/01/02 05:41:17;;;;;;;13.73;5.17;;;;;;;;;;5036064;28;21018;-80
2024/01/02 05:43:44;;;;;;;17.93;5.07;;;;;;;;;;5035728;28;20891;-81
2024/01/02 05:46:10;;;;;;;10.03;3.80;;;;;;;;;;5035969;28;21064;-79
2024/01/02 05:48:38;;;;;;;9.47;3.53;;;;;;;;;;5036341;28;20527;-80
2024/01/02 05:51:05;;;;;;;11.93;4.63;;;;;;;;;;5036099;28;20987;-79
2024/01/02 05:53:31;;;;;;;14.73;4.27;;;;;;;;;;5035924;28;20441;-79
2024/01/02 05:55:58;;;;;;;12.17;4.40;;;;;;;;;;5035246;28;20568;-79
2024/01/02 05:58:24;;;;;;;17.50;4.40;;;;;;;;;;5035846;28;21018;-79
2024/01/02 06:00:50;;;;;;;12.50;4.17;;;;;;;;;;5035681;28;20560;-79
2024/01/02 06:03:17;;;;;;;8.13;4.10;;;;;;;;;;5036022;28;20504;-80
2024/01/02 06:05:45;;;;;;;11.20;4.00;;;;;;;;;;5035296;28;20534;-79
2024/01/02 06:08:12;;;;;;;7.30;4.07;;;;;;;;;;5035929;28;20441;-79
2024/01/02 06:10:41;;;;;;;12.90;3.83;;;;;;;;;;5035727;28;20564;-79
2024/01/02 06:13:08;;;;;;;10.23;4.40;;;;;;;;;;5035822;28;20471;-79
2024/01/02 06:15:34;;;;;;;7.93;3.80;;;;;;;;;;5035089;28;20563;-79
2024/01/02 06:18:01;;;;;;;6.17;3.10;;;;;;;;;;5035883;28;20515;-79
2024/01/02 06:20:27;;;;;;;9.73;3.63;;;;;;;;;;5035208;28;20917;-79
2024/01/02 06:22:55;;;;;;;6.00;3.70;;;;;;;;;;5035381;28;20996;-79
2024/01/02 06:25:21;;;;;;;10.63;2.80;;;;;;;;;;5034949;28;20480;-79
2024/01/02 06:27:48;;;;;;;8.93;4.20;;;;;;;;;;5035609;28;20535;-79
2024/01/02 06:30:14;;;;;;;5.40;2.70;;;;;;;;;;5035341;28;20563;-79
2024/01/02 06:32:41;;;;;;;10.30;4.00;;;;;;;;;;5035560;28;20521;-80
2024/01/02 06:35:08;;;;;;;10.13;3.50;;;;;;;;;;5034782;28;20562;-79
2024/01/02 06:37:34;;;;;;;5.43;3.07;;;;;;;;;;5035452;28;20834;-79
2024/01/02 06:40:02;;;;;;;12.13;2.93;;;;;;;;;;5035054;28;21061;-79
2024/01/02 06:42:28;;;;;;;4.97;2.53;;;;;;;;;;5035425;28;20544;-79
2024/01/02 06:44:55;;;;;;;10.10;3.37;;;;;;;;;;5034716;28;20551;-79
2024/01/02 06:47:21;;;;;;;5.53;2.90;;;;;;;;;;5034516;28;20524;-79
2024/01/02 06:49:48;;;;;;;13.50;3.50;;;;;;;;;;5034236;28;20567;-79
2024/01/02 06:52:14;;;;;;;8.17;3.60;;;;;;;;;;5034812;28;21002;-79
2024/01/02 06:54:40;;;;;;;5.80;2.90;;;;;;;;;;5034282;28;20564;-79
2024/01/02 06:57:08;;;;;;;8.70;2.80;;;;;;;;;;5035029;28;20605;-79
2024/01/02 06:59:35;;;;;;;9.00;3.10;;;;;;;;;;5036624;28;20484;-80
2024/01/02 07:02:02;;;;;;;5.43;2.80;;;;;;;;;;5043840;28;20524;-78
2024/01/02 07:04:28;;;;;;;7.80;3.10;;;;;;;;;;5031474;28;21053;-81
2024/01/02 07:06:54;;;;;;;4.97;2.53;;;;;;;;;;5035045;28;20512;-78
2024/01/02 07:09:21;;;;;;;4.43;2.60;;;;;;;;;;5034358;28;20518;-80
2024/01/02 07:11:47;;;;;;;7.73;3.20;;;;;;;;;;5034710;28;20527;-80
2024/01/02 07:14:15;;;;;;;15.97;2.87;;;;;;;;;;5034250;28;20488;-80
2024/01/02 07:16:42;;;;;;;4.97;2.53;;;;;;;;;;5034692;28;20619;-80
2024/01/02 07:19:08;;;;;;;8.00;3.03;;;;;;;;;;5033927;28;21050;-78
2024/01/02 07:21:35;;;;;;;4.60;2.80;;;;;;;;;;5034597;28;20523;-81
2024/01/02 07:24:01;;;;;;;9.90;2.93;;;;;;;;;;5033735;28;21023;-79
2024/01/02 07:26:27;;;;;;;7.63;3.10;;;;;;;;;;5034506;28;20527;-79
2024/01/02 07:28:54;;;;;;;7.97;3.57;;;;;;;;;;5033845;28;20862;-78
2024/01/02 07:31:23;;;;;;;4.23;3.60;;;;;;;;;;5034136;28;21069;-78
2024/01/02 07:33:49;;;;;;;9.80;3.27;;;;;;;;;;5033492;28;20528;-79
2024/01/02 07:36:17;;;;;;;6.87;3.70;;;;;;;;;;5034083;28;20532;-81
2024/01/02 07:38:44;;;;;;;5.27;3.70;;;;;;;;;;5033799;28;20441;-79
2024/01/02 07:41:10;;;;;;;4.80;3.47;;;;;;;;;;5033812;28;20540;-78
2024/01/02 07:43:36;;;;;;;7.40;3.83;;;;;;;;;;5034082;28;20523;-78
2024/01/02 07:46:03;;;;;;;5.27;3.80;;;;;;;;;;5033307;28;20560;-79
2024/01/02 07:48:31;;;;;;;6.73;4.40;;;;;;;;;;5033735;28;20531;-78
2024/01/02 07:50:58;;;;;;;6.80;3.60;;;;;;;;;;5033364;28;20564;-80
2024/01/02 07:53:24;;;;;;;6.17;4.00;;;;;;;;;;5033836;28;20532;-78
2024/01/02 07:55:50;;;;;;;11.13;5.00;;;;;;;;;;5033334;28;20480;-78
2024/01/02 07:58:17;;;;;;;7.40;4.50;;;;;;;;;;5033903;28;20513;-78
2024/01/02 08:00:43;;;;;;;11.93;4.03;;;;;;;;;;5033184;28;20560;-78
2024/01/02 08:03:10;;;;;;;8.17;3.87;;;;;;;;;;5033976;28;20516;-78
2024/01/02 08:05:38;;;;;;;7.53;3.10;;;;;;;;;;5033042;28;20991;-79
2024/01/02 08:08:05;;;;;;;4.93;3.00;;;;;;;;;;5033894;28;20524;-78
2024/01/02 08:10:32;;;;;;;5.27;3.50;;;;;;;;;;5033105;28;20911;-79
2024/01/02 08:12:58;;;;;;;4.27;3.20;;;;;;;;;;5033618;28;21034;-79
2024/01/02 08:15:25;;;;;;;5.60;3.93;;;;;;;;;;5033169;28;21058;-78
2024/01/02 08:17:52;;;;;;;4.10;3.30;;;;;;;;;;5033883;28;20452;-78
2024/01/02 08:20:18;;;;;;;4.37;3.13;;;;;;;;;;5033105;28;20500;-79
2024/01/02 08:22:46;;;;;;;5.13;4.17;;;;;;;;;;5033799;28;20512;-78
2024/01/02 08:25:12;;;;;;;3.90;3.00;;;;;;;;;;5034379;28;21081;-80
2024/01/02 08:27:39;;;;;;;5.10;3.43;;;;;;;;;;5033547;28;20532;-80
2024/01/02 08:30:07;;;;;;;5.17;3.40;;;;;;;;;;5033090;28;20568;-80
2024/01/02 08:32:33;;;;;;;5.80;3.27;;;;;;;;;;5033722;28;20440;-80
2024/01/02 08:35:00;;;;;;;8.57;3.87;;;;;;;;;;5032885;28;20564;-79
2024/01/02 08:37:27;;;;;;;4.10;3.53;;;;;;;;;;5033769;28;20519;-80
2024/01/02 08:39:55;;;;;;;7.20;4.40;;;;;;;;;;5033111;28;21009;-78
2024/01/02 08:42:22;;;;;;;4.37;3.23;;;;;;;;;;5032963;28;20445;-80
2024/01/02 08:44:48;;;;;;;3.00;2.70;;;;;;;;;;5032953;28;20481;-78
2024/01/02 08:47:15;;;;;;;5.53;3.27;;;;;;;;;;5033256;28;20885;-78
2024/01/02 08:49:41;;;;;;;4.47;2.40;;;;;;;;;;5032893;28;20908;-78
2024/01/02 08:52:08;;;;;;;4.10;3.03;;;;;;;;;;5033118;28;20524;-81
2024/01/02 08:54:34;;;;;;;4.43;2.93;;;;;;;;;;5032570;28;20555;-81
2024/01/02 08:57:02;;;;;;;3.17;2.70;;;;;;;;;;5033376;28;20487;-78
2024/01/02 08:59:28;;;;;;;3.63;2.80;;;;;;;;;;5032768;28;20563;-78
2024/01/02 09:01:55;;;;;;;3.00;2.13;;;;;;;;;;5033265;28;20483;-78
2024/01/02 09:04:23;;;;;;;4.67;3.23;;;;;;;;;;5032947;28;20560;-78
2024/01/02 09:06:49;;;;;;;5.40;3.17;;;;;;;;;;5033180;28;20445;-78
2024/01/02 09:09:16;;;;;;;6.33;2.60;;;;;;;;;;5032409;28;20552;-79
2024/01/02 09:11:43;;;;;;;5.73;2.90;;;;;;;;;;5034962;28;20480;-78
2024/01/02 09:14:12;;;;;;;4.93;2.97;;;;;;;;;;5036444;28;20484;-78
2024/01/02 09:16:39;;;;;;;5.40;3.20;;;;;;;;;;5036755;28;21010;-79
2024/01/02 09:19:05;;;;;;;4.47;3.20;;;;;;;;;;5036519;28;20460;-78
2024/01/02 09:21:32;;;;;;;3.73;2.60;;;;;;;;;;5036886;28;20540;-79
2024/01/02 09:23:58;;;;;;;2.03;1.80;;;;;;;;;;5036051;28;20523;-79
2024/01/02 09:26:25;;;;;;;3.53;1.70;;;;;;;;;;5036512;28;20531;-78
2024/01/02 09:28:51;;;;;;;4.13;1.90;;;;;;;;;;5035954;28;20531;-78
2024/01/02 09:31:19;;;;;;;2.60;2.17;;;;;;;;;;5036676;28;20503;-79
2024/01/02 09:33:46;;;;;;;2.23;2.13;;;;;;;;;;5036197;28;20445;-79
2024/01/02 09:36:14;;;;;;;2.03;1.93;;;;;;;;;;5036205;28;20536;-80
2024/01/02 09:38:40;;;;;;;3.03;2.17;;;;;;;;;;5037032;28;20881;-79
2024/01/02 09:41:14;;;;;;;2.30;2.10;;;;;;;;;;5035851;28;20547;-79
2024/01/02 09:43:46;;;;;;;3.53;2.47;;;;;;;;;;5036570;28;20500;-78
2024/01/02 09:46:15;;;;;;;3.27;2.03;;;;;;;;;;5036264;28;20484;-79
2024/01/02 09:48:55;;;;;;;2.93;2.47;;;;;;;;;;5036289;28;20527;-78
2024/01/02 09:51:32;;;;;;;5.43;2.77;;;;;;;;;;5036047;28;20856;-80
2024/01/02 09:54:11;;;;;;;6.23;4.43;;;;;;;;;;5035683;28;20472;-81
2024/01/02 09:56:42;;;;;;;5.10;4.10;;;;;;;;;;5036018;28;20479;-78
2024/01/02 09:59:14;;;;;;;6.43;4.60;;;;;;;;;;5035830;28;20532;-78
2024/01/02 10:01:45;;;;;;;7.63;5.87;;;;;;;;;;5036088;28;20484;-79
2024/01/02 10:04:34;;;;;;;9.80;5.97;;;;;;;;;;5036359;28;21049;-78
2024/01/02 10:07:13;;;;;;;12.87;6.23;;;;;;;;;;5036123;28;20425;-78
2024/01/02 10:09:44;;;;;;;7.73;5.87;;;;;;;;;;5035507;28;20475;-78
2024/01/02 10:12:14;;;;;;;7.73;4.70;;;;;;;;;;5035868;28;20579;-79
2024/01/02 10:14:49;;;;;;;8.30;4.40;;;;;;;;;;5036895;28;21073;-80
2024/01/02 10:17:21;;;;;;;6.23;3.73;;;;;;;;;;5035573;28;20428;-80
2024/01/02 10:19:53;;;;;;;4.70;3.83;;;;;;;;;;5035167;28;20990;-81
2024/01/02 10:22:26;;;;;;;5.20;3.23;;;;;;;;;;5034849;28;20421;-80
2024/01/02 10:24:57;;;;;;;4.13;3.30;;;;;;;;;;5034878;28;21046;-80
2024/01/02 10:27:29;;;;;;;4.43;3.50;;;;;;;;;;5035765;28;20507;-80
2024/01/02 10:29:59;;;;;;;4.53;1.93;;;;;;;;;;5035007;28;21089;-80
2024/01/02 10:32:29;;;;;;;2.03;1.70;;;;;;;;;;5035615;28;20555;-80
2024/01/02 10:35:03;;;;;;;1.90;1.80;;;;;;;;;;5034897;28;20472;-81
2024/01/02 10:37:35;;;;;;;1.80;1.70;;;;;;;;;;5035772;28;20948;-80
2024/01/02 10:40:06;;;;;;;1.47;1.37;;;;;;;;;;5034934;28;20556;-80
2024/01/02 10:42:33;;;;;;;1.30;1.23;;;;;;;;;;5035109;28;20963;-78
2024/01/02 10:45:07;;;;;;;3.90;1.60;;;;;;;;;;5034632;28;20469;-80
2024/01/02 10:47:39;;;;;;;1.43;1.33;;;;;;;;;;5034971;28;20431;-78
2024/01/02 10:50:12;;;;;;;1.33;1.23;;;;;;;;;;5034640;28;20994;-79
2024/01/02 10:52:43;;;;;;;1.83;1.47;;;;;;;;;;5035237;28;20547;-79
2024/01/02 10:55:11;;;;;;;2.90;1.40;;;;;;;;;;5034639;28;21058;-78
2024/01/02 10:57:43;;;;;;;1.40;1.30;;;;;;;;;;5034791;28;20533;-78
2024/01/02 11:00:12;;;;;;;1.90;1.30;;;;;;;;;;5034616;28;21057;-79
2024/01/02 11:02:43;;;;;;;1.33;1.30;;;;;;;;;;5035254;28;20464;-78
2024/01/02 11:05:23;;;;;;;1.40;1.30;;;;;;;;;;5034184;28;20481;-79
2024/01/02 11:07:50;;;;;;;1.50;1.40;;;;;;;;;;5034897;28;20850;-79
2024/01/02 11:10:19;;;;;;;1.77;1.43;;;;;;;;;;5034709;28;20555;-79
2024/01/02 11:12:50;;;;;;;1.30;1.30;;;;;;;;;;5034710;28;20476;-79
2024/01/02 11:15:18;;;;;;;1.50;1.20;;;;;;;;;;5034536;28;20500;-78
2024/01/02 11:17:45;;;;;;;1.60;1.50;;;;;;;;;;5034669;28;20448;-79
2024/01/02 11:20:14;;;;;;;4.23;1.67;;;;;;;;;;5034333;28;20480;-78
2024/01/02 11:22:44;;;;;;;2.27;2.10;;;;;;;;;;5034342;28;20809;-78
2024/01/02 11:25:11;;;;;;;2.07;1.97;;;;;;;;;;5033972;28;20551;-79
2024/01/02 11:27:38;;;;;;;3.50;2.00;;;;;;;;;;5034159;28;21014;-79
2024/01/02 11:30:07;;;;;;;3.27;2.60;;;;;;;;;;5034080;28;20837;-78
2024/01/02 11:32:38;;;;;;;3.37;2.07;;;;;;;;;;5034243;28;20567;-79
2024/01/02 11:35:06;;;;;;;2.80;2.60;;;;;;;;;;5033164;28;20555;-79
2024/01/02 11:37:35;;;;;;;3.80;2.67;;;;;;;;;;5034378;28;20876;-79
2024/01/02 11:40:04;;;;;;;4.93;2.70;;;;;;;;;;5033938;28;20476;-79
2024/01/02 11:42:39;;;;;;;3.20;2.37;;;;;;;;;;5034395;28;20448;-79
2024/01/02 11:45:09;;;;;;;3.57;3.27;;;;;;;;;;5033789;28;20555;-79
2024/01/02 11:47:41;;;;;;;3.23;2.50;;;;;;;;;;5033867;28;20444;-79
2024/01/02 11:50:08;;;;;;;3.40;3.07;;;;;;;;;;5033688;28;20551;-79
2024/01/02 11:52:38;;;;;;;4.17;3.60;;;;;;;;;;5033840;28;20584;-79
2024/01/02 11:55:07;;;;;;;3.63;3.33;;;;;;;;;;5033223;28;20575;-79
2024/01/02 11:57:37;;;;;;;3.77;3.33;;;;;;;;;;5033520;28;20531;-78
2024/01/02 12:00:06;;;;;;;4.57;4.10;;;;;;;;;;5033591;28;20560;-78
2024/01/02 12:02:39;;;;;;;4.37;3.70;;;;;;;;;;5034063;28;20817;-79
2024/01/02 12:05:10;;;;;;;3.67;3.37;;;;;;;;;;5033007;28;20560;-78
2024/01/02 12:07:39;;;;;;;6.83;5.83;;;;;;;;;;5033929;28;20428;-78
2024/01/02 12:10:07;;;;;;;7.17;5.87;;;;;;;;;;5033617;28;20469;-78
2024/01/02 12:12:38;;;;;;;5.37;4.87;;;;;;;;;;5033700;28;20567;-78
2024/01/02 12:15:06;;;;;;;4.97;4.47;;;;;;;;;;5032836;28;20469;-78
2024/01/02 12:17:35;;;;;;;61.97;42.20;;;;;;;;;;5033950;28;20437;-79
2024/01/02 12:20:03;;;;;;;208.43;134.57;;;;;;;;;;5033138;28;21045;-78
2024/01/02 12:22:31;;;;;;;9.43;6.93;;;;;;;;;;5033645;28;20453;-78
2024/01/02 12:24:57;;;;;;;5.40;4.90;;;;;;;;;;5032864;28;20551;-78
2024/01/02 12:27:26;;;;;;;7.70;5.83;;;;;;;;;;5033706;28;20448;-78
2024/01/02 12:29:57;;;;;;;6.10;5.50;;;;;;;;;;5032952;28;20559;-79
2024/01/02 12:32:32;;;;;;;9.30;5.80;;;;;;;;;;5033411;28;20475;-79
2024/01/02 12:35:02;;;;;;;6.60;5.57;;;;;;;;;;5033201;28;20555;-79
2024/01/02 12:37:34;;;;;;;7.63;5.90;;;;;;;;;;5033145;28;20443;-79
2024/01/02 12:40:01;;;;;;;7.07;5.93;;;;;;;;;;5033327;28;20548;-79
2024/01/02 12:42:32;;;;;;;7.57;6.27;;;;;;;;;;5033350;28;20440;-79
2024/01/02 12:45:02;;;;;;;7.83;6.53;;;;;;;;;;5034563;28;21081;-79
2024/01/02 12:47:32;;;;;;;12.23;6.80;;;;;;;;;;5038449;28;20879;-80
2024/01/02 12:50:02;;;;;;;8.53;7.00;;;;;;;;;;5037136;28;20468;-80
2024/01/02 12:52:32;;;;;;;9.80;7.43;;;;;;;;;;5037312;28;20480;-80
2024/01/02 12:54:59;;;;;;;9.93;7.40;;;;;;;;;;5036665;28;20911;-80
2024/01/02 12:57:32;;;;;;;11.27;7.73;;;;;;;;;;5037253;28;20445;-80
2024/01/02 13:00:00;;;;;;;10.07;6.93;;;;;;;;;;5036477;28;20475;-80
2024/01/02 13:02:27;;;;;;;9.27;7.50;;;;;;;;;;5036907;28;20527;-80
2024/01/02 13:04:54;;;;;;;10.70;8.10;;;;;;;;;;5036491;28;20503;-80
2024/01/02 13:07:20;;;;;;;10.77;7.97;;;;;;;;;;5037187;28;20519;-80
2024/01/02 13:09:47;;;;;;;14.20;7.90;;;;;;;;;;5036909;28;20873;-78
2024/01/02 13:12:13;;;;;;;10.03;7.60;;;;;;;;;;5036803;28;20575;-78
2024/01/02 13:14:40;;;;;;;11.50;8.57;;;;;;;;;;5036381;28;20644;-81
2024/01/02 13:17:09;;;;;;;15.60;9.70;;;;;;;;;;5036745;28;20452;-78
2024/01/02 13:19:37;;;;;;;10.57;8.27;;;;;;;;;;5036212;28;20551;-78
2024/01/02 13:22:03;;;;;;;18.43;8.57;;;;;;;;;;5036598;28;20433;-78
2024/01/02 13:24:44;;;;;;;13.20;7.70;;;;;;;;;;5036149;28;20551;-78
2024/01/02 13:27:11;;;;;;;12.97;8.30;;;;;;;;;;5036785;28;20516;-80
2024/01/02 13:29:37;;;;;;;13.10;9.10;;;;;;;;;;5036316;28;20468;-80
2024/01/02 13:32:09;;;;;;;14.97;10.70;;;;;;;;;;5036245;28;21105;-80
2024/01/02 13:34:36;;;;;;;12.87;10.57;;;;;;;;;;5035964;28;20483;-80
2024/01/02 13:37:02;;;;;;;14.93;10.00;;;;;;;;;;5036481;28;20448;-78
2024/01/02 13:39:32;;;;;;;16.30;10.83;;;;;;;;;;5035954;28;20883;-78
2024/01/02 13:42:02;;;;;;;16.30;11.70;;;;;;;;;;5036669;28;20444;-78
2024/01/02 13:44:29;;;;;;;14.67;10.60;;;;;;;;;;5035808;28;20468;-78
2024/01/02 13:46:56;;;;;;;16.53;10.23;;;;;;;;;;5036421;28;20449;-78
2024/01/02 13:49:43;;;;;;;15.47;10.23;;;;;;;;;;5035646;28;20997;-78
2024/01/02 13:52:09;;;;;;;16.20;10.10;;;;;;;;;;5035972;28;20914;-80
2024/01/02 13:54:41;;;;;;;13.60;10.50;;;;;;;;;;5035825;28;20547;-80
2024/01/02 13:57:07;;;;;;;14.17;10.50;;;;;;;;;;5035824;28;20457;-80
2024/01/02 13:59:34;;;;;;;19.33;10.03;;;;;;;;;;5035868;28;20991;-80
2024/01/02 14:02:03;;;;;;;16.37;11.57;;;;;;;;;;5035800;28;21007;-80
2024/01/02 14:04:31;;;;;;;17.77;10.80;;;;;;;;;;5035506;28;20480;-80
2024/01/02 14:07:02;;;;;;;17.17;11.33;;;;;;;;;;5036065;28;20523;-78
2024/01/02 14:09:29;;;;;;;17.13;12.50;;;;;;;;;;5035338;28;20464;-79
2024/01/02 14:11:56;;;;;;;25.90;14.60;;;;;;;;;;5035886;28;20579;-80
2024/01/02 14:14:28;;;;;;;20.13;12.73;;;;;;;;;;5035185;28;20468;-80
2024/01/02 14:16:58;;;;;;;27.93;13.93;;;;;;;;;;5035604;28;20440;-80
2024/01/02 14:19:26;;;;;;;30.70;14.40;;;;;;;;;;5035392;28;20621;-78
2024/01/02 14:21:56;;;;;;;24.93;14.63;;;;;;;;;;5035809;28;20540;-78
2024/01/02 14:24:29;;;;;;;21.90;15.30;;;;;;;;;;5034877;28;20564;-78
2024/01/02 14:27:00;;;;;;;27.53;15.70;;;;;;;;;;5035652;28;20859;-78
2024/01/02 14:29:31;;;;;;;25.70;15.83;;;;;;;;;;5034839;28;20473;-78
2024/01/02 14:32:05;;;;;;;21.57;15.40;;;;;;;;;;5035211;28;20917;-78
2024/01/02 14:34:41;;;;;;;23.23;15.40;;;;;;;;;;5034944;28;20495;-78
2024/01/02 14:37:13;;;;;;;21.70;15.97;;;;;;;;;;5035293;28;20425;-78
2024/01/02 14:39:49;;;;;;;25.70;15.87;;;;;;;;;;5035024;28;20551;-78